sensor_id;sensor_type;location;lat;lon;timestamp;temperature;humidity
29321;DHT22;16323;51.130;6.612;2023-02-01T00:01:48;15.10;73.50
29321;DHT22;16323;51.130;6.612;2023-02-01T00:04:14;15.10;73.80
29321;DHT22;16323;51.130;6.612;2023-02-01T00:06:42;15.10;73.60
29321;DHT22;16323;51.130;6.612;2023-02-01T00:09:08;15.20;73.50
29321;DHT22;16323;51.130;6.612;2023-02-01T00:11:36;15.20;73.50
29321;DHT22;16323;51.130;6.612;2023-02-01T00:14:03;15.10;73.40
29321;DHT22;16323;51.130;6.612;2023-02-01T00:16:30;15.10;73.40
29321;DHT22;16323;51.130;6.612;2023-02-01T00:18:59;15.10;73.30
29321;DHT22;16323;51.130;6.612;2023-02-01T00:21:27;15.10;73.70
29321;DHT22;16323;51.130;6.612;2023-02-01T00:23:53;15.10;73.40
29321;DHT22;16323;51.130;6.612;2023-02-01T00:26:25;15.10;73.50
29321;DHT22;16323;51.130;6.612;2023-02-01T00:28:54;15.10;73.40
29321;DHT22;16323;51.130;6.612;2023-02-01T00:31:21;15.10;73.50
29321;DHT22;16323;51.130;6.612;2023-02-01T00:33:48;15.10;73.40
29321;DHT22;16323;51.130;6.612;2023-02-01T00:36:16;15.10;73.30
29321;DHT22;16323;51.130;6.612;2023-02-01T00:38:44;15.10;73.40
29321;DHT22;16323;51.130;6.612;2023-02-01T00:41:13;15.10;73.10
29321;DHT22;16323;51.130;6.612;2023-02-01T00:43:41;15.10;73.10
29321;DHT22;16323;51.130;6.612;2023-02-01T00:46:10;15.10;73.10
29321;DHT22;16323;51.130;6.612;2023-02-01T00:48:37;15.20;73.10
29321;DHT22;16323;51.130;6.612;2023-02-01T00:51:05;15.10;72.60
29321;DHT22;16323;51.130;6.612;2023-02-01T00:53:33;15.10;72.50
29321;DHT22;16323;51.130;6.612;2023-02-01T00:56:00;15.10;72.10
29321;DHT22;16323;51.130;6.612;2023-02-01T00:58:27;15.10;72.20
29321;DHT22;16323;51.130;6.612;2023-02-01T01:01:01;15.10;72.00
29321;DHT22;16323;51.130;6.612;2023-02-01T01:03:30;15.10;72.10
29321;DHT22;16323;51.130;6.612;2023-02-01T01:05:59;15.10;71.70
29321;DHT22;16323;51.130;6.612;2023-02-01T01:08:26;15.10;71.90
29321;DHT22;16323;51.130;6.612;2023-02-01T01:10:53;15.10;71.60
29321;DHT22;16323;51.130;6.612;2023-02-01T01:13:20;15.10;71.50
29321;DHT22;16323;51.130;6.612;2023-02-01T01:15:47;15.00;71.40
29321;DHT22;16323;51.130;6.612;2023-02-01T01:18:14;15.10;71.60
29321;DHT22;16323;51.130;6.612;2023-02-01T01:20:42;15.00;71.50
29321;DHT22;16323;51.130;6.612;2023-02-01T01:23:09;15.00;70.80
29321;DHT22;16323;51.130;6.612;2023-02-01T01:25:37;15.00;70.80
29321;DHT22;16323;51.130;6.612;2023-02-01T01:28:04;15.00;70.00
29321;DHT22;16323;51.130;6.612;2023-02-01T01:30:31;15.00;69.60
29321;DHT22;16323;51.130;6.612;2023-02-01T01:32:58;15.00;69.60
29321;DHT22;16323;51.130;6.612;2023-02-01T01:35:24;15.00;69.20
29321;DHT22;16323;51.130;6.612;2023-02-01T01:37:52;15.00;69.40
29321;DHT22;16323;51.130;6.612;2023-02-01T01:40:19;15.00;69.30
29321;DHT22;16323;51.130;6.612;2023-02-01T01:42:46;15.10;69.50
29321;DHT22;16323;51.130;6.612;2023-02-01T01:45:22;15.00;69.40
29321;DHT22;16323;51.130;6.612;2023-02-01T01:47:53;15.00;69.60
29321;DHT22;16323;51.130;6.612;2023-02-01T01:50:23;15.10;69.70
29321;DHT22;16323;51.130;6.612;2023-02-01T01:52:53;15.10;70.10
29321;DHT22;16323;51.130;6.612;2023-02-01T01:55:22;15.10;70.30
29321;DHT22;16323;51.130;6.612;2023-02-01T01:57:53;15.00;70.10
29321;DHT22;16323;51.130;6.612;2023-02-01T02:00:22;15.10;70.20
29321;DHT22;16323;51.130;6.612;2023-02-01T02:02:54;15.10;69.80
29321;DHT22;16323;51.130;6.612;2023-02-01T02:05:23;15.00;69.70
29321;DHT22;16323;51.130;6.612;2023-02-01T02:07:51;15.10;69.70
29321;DHT22;16323;51.130;6.612;2023-02-01T02:10:20;15.10;70.00
29321;DHT22;16323;51.130;6.612;2023-02-01T02:13:07;15.10;70.10
29321;DHT22;16323;51.130;6.612;2023-02-01T02:15:38;15.10;69.80
29321;DHT22;16323;51.130;6.612;2023-02-01T02:18:14;15.10;70.00
29321;DHT22;16323;51.130;6.612;2023-02-01T02:21:12;15.10;70.10
29321;DHT22;16323;51.130;6.612;2023-02-01T02:24:07;15.10;70.00
29321;DHT22;16323;51.130;6.612;2023-02-01T02:27:01;15.20;70.30
29321;DHT22;16323;51.130;6.612;2023-02-01T02:29:48;15.10;70.00
29321;DHT22;16323;51.130;6.612;2023-02-01T02:32:51;15.20;70.00
29321;DHT22;16323;51.130;6.612;2023-02-01T02:35:26;15.10;69.70
29321;DHT22;16323;51.130;6.612;2023-02-01T02:38:03;15.10;69.90
29321;DHT22;16323;51.130;6.612;2023-02-01T02:40:35;15.10;69.90
29321;DHT22;16323;51.130;6.612;2023-02-01T02:43:08;15.10;69.80
29321;DHT22;16323;51.130;6.612;2023-02-01T02:45:58;15.10;69.90
29321;DHT22;16323;51.130;6.612;2023-02-01T02:49:00;15.10;69.60
29321;DHT22;16323;51.130;6.612;2023-02-01T02:51:34;15.10;69.60
29321;DHT22;16323;51.130;6.612;2023-02-01T02:54:22;15.10;69.80
29321;DHT22;16323;51.130;6.612;2023-02-01T02:57:11;15.10;69.80
29321;DHT22;16323;51.130;6.612;2023-02-01T02:59:58;15.10;69.90
29321;DHT22;16323;51.130;6.612;2023-02-01T03:02:44;15.10;69.80
29321;DHT22;16323;51.130;6.612;2023-02-01T03:05:32;15.10;70.70
29321;DHT22;16323;51.130;6.612;2023-02-01T03:08:08;15.00;69.80
29321;DHT22;16323;51.130;6.612;2023-02-01T03:10:45;15.10;69.80
29321;DHT22;16323;51.130;6.612;2023-02-01T03:13:19;15.10;69.80
29321;DHT22;16323;51.130;6.612;2023-02-01T03:15:53;15.00;69.90
29321;DHT22;16323;51.130;6.612;2023-02-01T03:18:28;15.10;70.10
29321;DHT22;16323;51.130;6.612;2023-02-01T03:20:59;15.10;69.90
29321;DHT22;16323;51.130;6.612;2023-02-01T03:23:31;15.10;69.70
29321;DHT22;16323;51.130;6.612;2023-02-01T03:26:00;15.10;69.70
29321;DHT22;16323;51.130;6.612;2023-02-01T03:28:30;15.10;69.90
29321;DHT22;16323;51.130;6.612;2023-02-01T03:30:58;15.10;69.80
29321;DHT22;16323;51.130;6.612;2023-02-01T03:33:26;15.10;69.40
29321;DHT22;16323;51.130;6.612;2023-02-01T03:36:01;15.10;69.40
29321;DHT22;16323;51.130;6.612;2023-02-01T03:38:38;15.10;69.30
29321;DHT22;16323;51.130;6.612;2023-02-01T03:41:11;15.10;69.30
29321;DHT22;16323;51.130;6.612;2023-02-01T03:43:45;15.10;69.30
29321;DHT22;16323;51.130;6.612;2023-02-01T03:46:19;15.00;69.10
29321;DHT22;16323;51.130;6.612;2023-02-01T03:48:48;15.10;69.20
29321;DHT22;16323;51.130;6.612;2023-02-01T03:51:17;15.10;69.10
29321;DHT22;16323;51.130;6.612;2023-02-01T03:53:48;15.00;68.90
29321;DHT22;16323;51.130;6.612;2023-02-01T03:56:16;15.00;69.00
29321;DHT22;16323;51.130;6.612;2023-02-01T03:58:45;15.10;69.10
29321;DHT22;16323;51.130;6.612;2023-02-01T04:01:24;15.00;69.00
29321;DHT22;16323;51.130;6.612;2023-02-01T04:03:51;15.00;69.10
29321;DHT22;16323;51.130;6.612;2023-02-01T04:06:18;15.00;69.00
29321;DHT22;16323;51.130;6.612;2023-02-01T04:08:44;15.00;69.10
29321;DHT22;16323;51.130;6.612;2023-02-01T04:11:13;15.00;68.80
29321;DHT22;16323;51.130;6.612;2023-02-01T04:13:39;15.00;69.20
29321;DHT22;16323;51.130;6.612;2023-02-01T04:16:06;15.10;69.50
29321;DHT22;16323;51.130;6.612;2023-02-01T04:18:33;15.00;69.00
29321;DHT22;16323;51.130;6.612;2023-02-01T04:21:00;15.00;68.30
29321;DHT22;16323;51.130;6.612;2023-02-01T04:23:27;15.00;68.30
29321;DHT22;16323;51.130;6.612;2023-02-01T04:25:55;15.00;68.00
29321;DHT22;16323;51.130;6.612;2023-02-01T04:28:26;15.00;67.60
29321;DHT22;16323;51.130;6.612;2023-02-01T04:30:53;15.00;67.50
29321;DHT22;16323;51.130;6.612;2023-02-01T04:33:19;15.00;66.80
29321;DHT22;16323;51.130;6.612;2023-02-01T04:35:47;15.00;66.50
29321;DHT22;16323;51.130;6.612;2023-02-01T04:38:14;15.00;66.50
29321;DHT22;16323;51.130;6.612;2023-02-01T04:40:40;15.00;66.20
29321;DHT22;16323;51.130;6.612;2023-02-01T04:43:07;15.00;67.30
29321;DHT22;16323;51.130;6.612;2023-02-01T04:45:35;14.90;66.50
29321;DHT22;16323;51.130;6.612;2023-02-01T04:48:02;14.90;66.50
29321;DHT22;16323;51.130;6.612;2023-02-01T04:50:29;14.90;66.30
29321;DHT22;16323;51.130;6.612;2023-02-01T04:52:55;14.90;66.30
29321;DHT22;16323;51.130;6.612;2023-02-01T04:55:22;14.90;66.00
29321;DHT22;16323;51.130;6.612;2023-02-01T04:57:49;14.90;66.00
29321;DHT22;16323;51.130;6.612;2023-02-01T05:00:16;14.80;65.50
29321;DHT22;16323;51.130;6.612;2023-02-01T05:02:44;14.80;65.50
29321;DHT22;16323;51.130;6.612;2023-02-01T05:05:11;14.80;65.40
29321;DHT22;16323;51.130;6.612;2023-02-01T05:07:38;14.80;65.30
29321;DHT22;16323;51.130;6.612;2023-02-01T05:10:06;14.80;65.50
29321;DHT22;16323;51.130;6.612;2023-02-01T05:12:32;14.90;65.20
29321;DHT22;16323;51.130;6.612;2023-02-01T05:15:17;14.90;64.80
29321;DHT22;16323;51.130;6.612;2023-02-01T05:17:45;14.90;64.70
29321;DHT22;16323;51.130;6.612;2023-02-01T05:20:12;14.90;64.60
29321;DHT22;16323;51.130;6.612;2023-02-01T05:22:39;14.90;64.30
29321;DHT22;16323;51.130;6.612;2023-02-01T05:25:06;14.90;64.30
29321;DHT22;16323;51.130;6.612;2023-02-01T05:27:32;14.90;64.00
29321;DHT22;16323;51.130;6.612;2023-02-01T05:29:59;14.90;63.90
29321;DHT22;16323;51.130;6.612;2023-02-01T05:32:26;14.90;63.50
29321;DHT22;16323;51.130;6.612;2023-02-01T05:34:54;14.90;64.10
29321;DHT22;16323;51.130;6.612;2023-02-01T05:37:21;14.80;63.70
29321;DHT22;16323;51.130;6.612;2023-02-01T05:39:47;14.90;63.50
29321;DHT22;16323;51.130;6.612;2023-02-01T05:42:14;14.80;63.30
29321;DHT22;16323;51.130;6.612;2023-02-01T05:44:41;14.80;63.20
29321;DHT22;16323;51.130;6.612;2023-02-01T05:47:08;14.80;63.10
29321;DHT22;16323;51.130;6.612;2023-02-01T05:49:35;14.80;63.00
29321;DHT22;16323;51.130;6.612;2023-02-01T05:52:04;14.80;62.90
29321;DHT22;16323;51.130;6.612;2023-02-01T05:54:31;14.80;64.00
29321;DHT22;16323;51.130;6.612;2023-02-01T05:56:58;14.80;62.80
29321;DHT22;16323;51.130;6.612;2023-02-01T05:59:25;14.80;62.70
29321;DHT22;16323;51.130;6.612;2023-02-01T06:01:51;14.70;62.70
29321;DHT22;16323;51.130;6.612;2023-02-01T06:04:18;14.70;62.60
29321;DHT22;16323;51.130;6.612;2023-02-01T06:06:45;14.70;62.40
29321;DHT22;16323;51.130;6.612;2023-02-01T06:09:13;14.70;62.60
29321;DHT22;16323;51.130;6.612;2023-02-01T06:11:40;14.70;62.50
29321;DHT22;16323;51.130;6.612;2023-02-01T06:14:06;14.70;62.20
29321;DHT22;16323;51.130;6.612;2023-02-01T06:16:33;14.80;61.90
29321;DHT22;16323;51.130;6.612;2023-02-01T06:19:00;14.80;62.00
29321;DHT22;16323;51.130;6.612;2023-02-01T06:21:27;14.80;61.90
29321;DHT22;16323;51.130;6.612;2023-02-01T06:23:54;14.80;62.10
29321;DHT22;16323;51.130;6.612;2023-02-01T06:26:24;14.80;62.20
29321;DHT22;16323;51.130;6.612;2023-02-01T06:28:51;14.80;61.90
29321;DHT22;16323;51.130;6.612;2023-02-01T06:31:18;14.80;62.10
29321;DHT22;16323;51.130;6.612;2023-02-01T06:33:44;14.80;62.20
29321;DHT22;16323;51.130;6.612;2023-02-01T06:36:12;14.80;62.20
29321;DHT22;16323;51.130;6.612;2023-02-01T06:38:41;14.80;62.00
29321;DHT22;16323;51.130;6.612;2023-02-01T06:41:09;14.80;62.20
29321;DHT22;16323;51.130;6.612;2023-02-01T06:43:37;14.80;62.20
29321;DHT22;16323;51.130;6.612;2023-02-01T06:46:06;14.80;62.10
29321;DHT22;16323;51.130;6.612;2023-02-01T06:48:33;14.70;62.10
29321;DHT22;16323;51.130;6.612;2023-02-01T06:51:00;14.80;61.90
29321;DHT22;16323;51.130;6.612;2023-02-01T06:53:27;14.80;61.90
29321;DHT22;16323;51.130;6.612;2023-02-01T06:55:55;14.80;61.70
29321;DHT22;16323;51.130;6.612;2023-02-01T06:58:23;14.80;61.70
29321;DHT22;16323;51.130;6.612;2023-02-01T07:00:51;14.80;61.60
29321;DHT22;16323;51.130;6.612;2023-02-01T07:03:19;14.80;61.40
29321;DHT22;16323;51.130;6.612;2023-02-01T07:05:46;14.80;61.80
29321;DHT22;16323;51.130;6.612;2023-02-01T07:08:13;14.80;61.30
29321;DHT22;16323;51.130;6.612;2023-02-01T07:10:40;14.80;61.20
29321;DHT22;16323;51.130;6.612;2023-02-01T07:13:07;14.90;61.40
29321;DHT22;16323;51.130;6.612;2023-02-01T07:15:34;14.90;61.20
29321;DHT22;16323;51.130;6.612;2023-02-01T07:18:02;14.90;61.30
29321;DHT22;16323;51.130;6.612;2023-02-01T07:20:29;14.90;62.20
29321;DHT22;16323;51.130;6.612;2023-02-01T07:22:56;14.90;61.00
29321;DHT22;16323;51.130;6.612;2023-02-01T07:25:23;14.90;61.00
29321;DHT22;16323;51.130;6.612;2023-02-01T07:27:50;14.90;61.00
29321;DHT22;16323;51.130;6.612;2023-02-01T07:30:17;14.80;61.10
29321;DHT22;16323;51.130;6.612;2023-02-01T07:32:44;14.90;63.10
29321;DHT22;16323;51.130;6.612;2023-02-01T07:35:12;14.80;61.80
29321;DHT22;16323;51.130;6.612;2023-02-01T07:37:40;14.80;61.80
29321;DHT22;16323;51.130;6.612;2023-02-01T07:40:07;14.80;61.80
29321;DHT22;16323;51.130;6.612;2023-02-01T07:42:34;14.80;61.80
29321;DHT22;16323;51.130;6.612;2023-02-01T07:45:01;14.70;61.70
29321;DHT22;16323;51.130;6.612;2023-02-01T07:47:29;14.70;61.50
29321;DHT22;16323;51.130;6.612;2023-02-01T07:49:55;14.70;61.30
29321;DHT22;16323;51.130;6.612;2023-02-01T07:52:23;14.70;61.10
29321;DHT22;16323;51.130;6.612;2023-02-01T07:54:50;14.70;61.00
29321;DHT22;16323;51.130;6.612;2023-02-01T07:57:17;14.70;61.00
29321;DHT22;16323;51.130;6.612;2023-02-01T07:59:44;14.70;60.80
29321;DHT22;16323;51.130;6.612;2023-02-01T08:02:24;14.70;61.00
29321;DHT22;16323;51.130;6.612;2023-02-01T08:04:51;14.80;60.70
29321;DHT22;16323;51.130;6.612;2023-02-01T08:07:18;14.80;60.50
29321;DHT22;16323;51.130;6.612;2023-02-01T08:09:47;14.80;60.60
29321;DHT22;16323;51.130;6.612;2023-02-01T08:12:13;14.80;60.50
29321;DHT22;16323;51.130;6.612;2023-02-01T08:14:40;14.80;60.50
29321;DHT22;16323;51.130;6.612;2023-02-01T08:17:07;14.90;60.40
29321;DHT22;16323;51.130;6.612;2023-02-01T08:19:34;14.90;60.40
29321;DHT22;16323;51.130;6.612;2023-02-01T08:22:00;14.90;60.30
29321;DHT22;16323;51.130;6.612;2023-02-01T08:24:32;14.90;60.40
29321;DHT22;16323;51.130;6.612;2023-02-01T08:27:02;14.90;60.40
29321;DHT22;16323;51.130;6.612;2023-02-01T08:29:29;14.90;60.30
29321;DHT22;16323;51.130;6.612;2023-02-01T08:31:55;14.90;60.60
29321;DHT22;16323;51.130;6.612;2023-02-01T08:34:22;14.90;60.80
29321;DHT22;16323;51.130;6.612;2023-02-01T08:36:49;14.90;60.90
29321;DHT22;16323;51.130;6.612;2023-02-01T08:39:17;14.90;60.90
29321;DHT22;16323;51.130;6.612;2023-02-01T08:41:44;14.90;61.20
29321;DHT22;16323;51.130;6.612;2023-02-01T08:44:34;14.90;61.40
29321;DHT22;16323;51.130;6.612;2023-02-01T08:47:01;14.90;61.60
29321;DHT22;16323;51.130;6.612;2023-02-01T08:49:28;14.90;61.70
29321;DHT22;16323;51.130;6.612;2023-02-01T08:51:55;14.90;61.80
29321;DHT22;16323;51.130;6.612;2023-02-01T08:54:21;14.90;61.70
29321;DHT22;16323;51.130;6.612;2023-02-01T08:56:49;14.90;62.00
29321;DHT22;16323;51.130;6.612;2023-02-01T08:59:15;14.90;62.20
29321;DHT22;16323;51.130;6.612;2023-02-01T09:01:43;15.00;62.20
29321;DHT22;16323;51.130;6.612;2023-02-01T09:04:10;15.00;62.10
29321;DHT22;16323;51.130;6.612;2023-02-01T09:06:40;15.00;62.40
29321;DHT22;16323;51.130;6.612;2023-02-01T09:09:07;15.00;63.40
29321;DHT22;16323;51.130;6.612;2023-02-01T09:11:34;15.00;62.30
29321;DHT22;16323;51.130;6.612;2023-02-01T09:14:00;15.00;63.30
29321;DHT22;16323;51.130;6.612;2023-02-01T09:16:27;15.00;62.40
29321;DHT22;16323;51.130;6.612;2023-02-01T09:18:56;15.00;62.40
29321;DHT22;16323;51.130;6.612;2023-02-01T09:21:23;15.00;62.40
29321;DHT22;16323;51.130;6.612;2023-02-01T09:23:50;15.00;62.40
29321;DHT22;16323;51.130;6.612;2023-02-01T09:26:17;15.00;62.40
29321;DHT22;16323;51.130;6.612;2023-02-01T09:28:44;15.00;62.50
29321;DHT22;16323;51.130;6.612;2023-02-01T09:31:10;15.00;62.50
29321;DHT22;16323;51.130;6.612;2023-02-01T09:33:37;15.00;62.50
29321;DHT22;16323;51.130;6.612;2023-02-01T09:36:07;15.00;62.70
29321;DHT22;16323;51.130;6.612;2023-02-01T09:38:34;14.90;62.60
29321;DHT22;16323;51.130;6.612;2023-02-01T09:41:01;14.90;62.40
29321;DHT22;16323;51.130;6.612;2023-02-01T09:43:39;15.00;62.70
29321;DHT22;16323;51.130;6.612;2023-02-01T09:46:19;14.90;62.80
29321;DHT22;16323;51.130;6.612;2023-02-01T09:48:49;14.90;62.80
29321;DHT22;16323;51.130;6.612;2023-02-01T09:51:23;14.90;62.80
29321;DHT22;16323;51.130;6.612;2023-02-01T09:53:58;15.00;63.20
29321;DHT22;16323;51.130;6.612;2023-02-01T09:56:33;15.00;63.00
29321;DHT22;16323;51.130;6.612;2023-02-01T09:59:06;15.00;63.00
29321;DHT22;16323;51.130;6.612;2023-02-01T10:01:35;15.00;62.80
29321;DHT22;16323;51.130;6.612;2023-02-01T10:04:04;15.00;62.80
29321;DHT22;16323;51.130;6.612;2023-02-01T10:06:40;15.00;62.90
29321;DHT22;16323;51.130;6.612;2023-02-01T10:09:19;15.10;62.80
29321;DHT22;16323;51.130;6.612;2023-02-01T10:12:03;15.10;63.00
29321;DHT22;16323;51.130;6.612;2023-02-01T10:14:50;15.10;62.90
29321;DHT22;16323;51.130;6.612;2023-02-01T10:17:37;15.10;63.90
29321;DHT22;16323;51.130;6.612;2023-02-01T10:20:18;15.10;62.90
29321;DHT22;16323;51.130;6.612;2023-02-01T10:22:54;15.00;62.80
29321;DHT22;16323;51.130;6.612;2023-02-01T10:25:27;15.00;62.90
29321;DHT22;16323;51.130;6.612;2023-02-01T10:27:56;15.00;62.80
29321;DHT22;16323;51.130;6.612;2023-02-01T10:30:25;15.00;63.00
29321;DHT22;16323;51.130;6.612;2023-02-01T10:32:56;15.00;63.00
29321;DHT22;16323;51.130;6.612;2023-02-01T10:35:28;15.00;62.90
29321;DHT22;16323;51.130;6.612;2023-02-01T10:38:00;15.00;62.90
29321;DHT22;16323;51.130;6.612;2023-02-01T10:40:28;15.00;63.00
29321;DHT22;16323;51.130;6.612;2023-02-01T10:42:58;15.00;63.10
29321;DHT22;16323;51.130;6.612;2023-02-01T10:45:28;15.00;63.10
29321;DHT22;16323;51.130;6.612;2023-02-01T10:47:57;15.00;63.20
29321;DHT22;16323;51.130;6.612;2023-02-01T10:50:33;14.90;63.40
29321;DHT22;16323;51.130;6.612;2023-02-01T10:53:05;15.00;63.30
29321;DHT22;16323;51.130;6.612;2023-02-01T10:55:41;15.00;63.30
29321;DHT22;16323;51.130;6.612;2023-02-01T10:58:15;15.00;63.10
29321;DHT22;16323;51.130;6.612;2023-02-01T11:00:45;15.00;63.10
29321;DHT22;16323;51.130;6.612;2023-02-01T11:03:34;15.00;63.10
29321;DHT22;16323;51.130;6.612;2023-02-01T11:06:19;15.00;63.10
29321;DHT22;16323;51.130;6.612;2023-02-01T11:08:51;15.00;63.00
29321;DHT22;16323;51.130;6.612;2023-02-01T11:11:19;15.10;63.10
29321;DHT22;16323;51.130;6.612;2023-02-01T11:13:52;15.10;64.30
29321;DHT22;16323;51.130;6.612;2023-02-01T11:16:19;15.10;63.10
29321;DHT22;16323;51.130;6.612;2023-02-01T11:18:53;15.00;63.10
29321;DHT22;16323;51.130;6.612;2023-02-01T11:21:21;15.10;63.30
29321;DHT22;16323;51.130;6.612;2023-02-01T11:23:49;15.10;63.20
29321;DHT22;16323;51.130;6.612;2023-02-01T11:26:22;15.10;63.10
29321;DHT22;16323;51.130;6.612;2023-02-01T11:28:53;15.00;63.30
29321;DHT22;16323;51.130;6.612;2023-02-01T11:31:20;15.00;63.10
29321;DHT22;16323;51.130;6.612;2023-02-01T11:33:52;15.00;63.20
29321;DHT22;16323;51.130;6.612;2023-02-01T11:36:23;15.00;63.30
29321;DHT22;16323;51.130;6.612;2023-02-01T11:39:06;15.00;63.40
29321;DHT22;16323;51.130;6.612;2023-02-01T11:41:34;15.00;63.40
29321;DHT22;16323;51.130;6.612;2023-02-01T11:44:14;15.00;63.30
29321;DHT22;16323;51.130;6.612;2023-02-01T11:46:43;15.00;63.60
29321;DHT22;16323;51.130;6.612;2023-02-01T11:49:21;15.00;63.30
29321;DHT22;16323;51.130;6.612;2023-02-01T11:52:07;15.10;64.30
29321;DHT22;16323;51.130;6.612;2023-02-01T11:54:51;15.10;63.10
29321;DHT22;16323;51.130;6.612;2023-02-01T11:57:37;15.10;63.10
29321;DHT22;16323;51.130;6.612;2023-02-01T12:00:23;15.10;62.90
29321;DHT22;16323;51.130;6.612;2023-02-01T12:03:05;15.00;63.00
29321;DHT22;16323;51.130;6.612;2023-02-01T12:05:50;15.00;62.80
29321;DHT22;16323;51.130;6.612;2023-02-01T12:08:37;15.00;62.90
29321;DHT22;16323;51.130;6.612;2023-02-01T12:11:36;15.10;63.10
29321;DHT22;16323;51.130;6.612;2023-02-01T12:14:14;15.00;62.70
29321;DHT22;16323;51.130;6.612;2023-02-01T12:16:51;15.00;62.80
29321;DHT22;16323;51.130;6.612;2023-02-01T12:19:33;15.00;62.90
29321;DHT22;16323;51.130;6.612;2023-02-01T12:22:16;15.00;62.90
29321;DHT22;16323;51.130;6.612;2023-02-01T12:25:11;15.00;62.60
29321;DHT22;16323;51.130;6.612;2023-02-01T12:31:01;15.00;62.80
29321;DHT22;16323;51.130;6.612;2023-02-01T12:33:48;15.00;62.80
29321;DHT22;16323;51.130;6.612;2023-02-01T12:36:21;15.00;62.70
29321;DHT22;16323;51.130;6.612;2023-02-01T12:38:53;15.00;62.80
29321;DHT22;16323;51.130;6.612;2023-02-01T12:41:40;15.00;62.70
29321;DHT22;16323;51.130;6.612;2023-02-01T12:44:16;15.00;62.40
29321;DHT22;16323;51.130;6.612;2023-02-01T12:46:46;15.10;62.30
29321;DHT22;16323;51.130;6.612;2023-02-01T12:49:17;15.00;62.40
29321;DHT22;16323;51.130;6.612;2023-02-01T12:51:46;15.10;62.40
29321;DHT22;16323;51.130;6.612;2023-02-01T12:54:20;15.10;62.20
29321;DHT22;16323;51.130;6.612;2023-02-01T12:56:51;15.10;62.40
29321;DHT22;16323;51.130;6.612;2023-02-01T12:59:28;15.10;62.10
29321;DHT22;16323;51.130;6.612;2023-02-01T13:02:01;15.10;62.20
29321;DHT22;16323;51.130;6.612;2023-02-01T13:04:36;15.10;61.90
29321;DHT22;16323;51.130;6.612;2023-02-01T13:07:09;15.10;61.90
29321;DHT22;16323;51.130;6.612;2023-02-01T13:09:39;15.10;61.90
29321;DHT22;16323;51.130;6.612;2023-02-01T13:12:12;15.10;62.00
29321;DHT22;16323;51.130;6.612;2023-02-01T13:14:44;15.00;62.00
29321;DHT22;16323;51.130;6.612;2023-02-01T13:17:15;15.00;61.90
29321;DHT22;16323;51.130;6.612;2023-02-01T13:19:45;15.10;62.10
29321;DHT22;16323;51.130;6.612;2023-02-01T13:22:17;15.10;62.40
29321;DHT22;16323;51.130;6.612;2023-02-01T13:24:49;15.10;62.20
29321;DHT22;16323;51.130;6.612;2023-02-01T13:27:17;15.10;62.30
29321;DHT22;16323;51.130;6.612;2023-02-01T13:29:53;15.00;62.50
29321;DHT22;16323;51.130;6.612;2023-02-01T13:32:44;15.10;62.50
29321;DHT22;16323;51.130;6.612;2023-02-01T13:35:46;15.00;62.40
29321;DHT22;16323;51.130;6.612;2023-02-01T13:38:33;15.10;62.50
29321;DHT22;16323;51.130;6.612;2023-02-01T13:41:13;15.10;62.30
29321;DHT22;16323;51.130;6.612;2023-02-01T13:43:44;15.10;62.10
29321;DHT22;16323;51.130;6.612;2023-02-01T13:46:14;15.30;62.40
29321;DHT22;16323;51.130;6.612;2023-02-01T13:48:48;15.40;62.10
29321;DHT22;16323;51.130;6.612;2023-02-01T13:51:18;15.40;62.10
29321;DHT22;16323;51.130;6.612;2023-02-01T13:53:55;15.30;62.30
29321;DHT22;16323;51.130;6.612;2023-02-01T13:56:24;15.30;62.20
29321;DHT22;16323;51.130;6.612;2023-02-01T13:58:51;15.20;62.20
29321;DHT22;16323;51.130;6.612;2023-02-01T14:01:44;15.20;62.10
29321;DHT22;16323;51.130;6.612;2023-02-01T14:04:47;15.10;62.10
29321;DHT22;16323;51.130;6.612;2023-02-01T14:07:19;15.10;62.20
29321;DHT22;16323;51.130;6.612;2023-02-01T14:09:46;15.10;62.20
29321;DHT22;16323;51.130;6.612;2023-02-01T14:12:47;15.10;62.00
29321;DHT22;16323;51.130;6.612;2023-02-01T14:15:22;15.10;62.10
29321;DHT22;16323;51.130;6.612;2023-02-01T14:17:51;15.10;62.00
29321;DHT22;16323;51.130;6.612;2023-02-01T14:20:48;15.10;62.00
29321;DHT22;16323;51.130;6.612;2023-02-01T14:23:25;15.10;62.90
29321;DHT22;16323;51.130;6.612;2023-02-01T14:26:14;15.10;61.80
29321;DHT22;16323;51.130;6.612;2023-02-01T14:28:46;15.10;61.50
29321;DHT22;16323;51.130;6.612;2023-02-01T14:34:04;15.10;61.60
29321;DHT22;16323;51.130;6.612;2023-02-01T14:36:43;15.10;61.40
29321;DHT22;16323;51.130;6.612;2023-02-01T14:39:27;15.20;61.40
29321;DHT22;16323;51.130;6.612;2023-02-01T14:41:57;15.20;61.40
29321;DHT22;16323;51.130;6.612;2023-02-01T14:44:30;15.20;61.40
29321;DHT22;16323;51.130;6.612;2023-02-01T14:47:32;15.20;61.20
29321;DHT22;16323;51.130;6.612;2023-02-01T14:50:25;15.20;61.30
29321;DHT22;16323;51.130;6.612;2023-02-01T14:53:05;15.20;61.50
29321;DHT22;16323;51.130;6.612;2023-02-01T14:55:36;15.20;61.70
29321;DHT22;16323;51.130;6.612;2023-02-01T14:58:06;15.20;61.80
29321;DHT22;16323;51.130;6.612;2023-02-01T15:00:47;15.20;61.90
29321;DHT22;16323;51.130;6.612;2023-02-01T15:03:25;15.20;61.90
29321;DHT22;16323;51.130;6.612;2023-02-01T15:05:58;15.20;61.90
29321;DHT22;16323;51.130;6.612;2023-02-01T15:08:30;15.20;61.80
29321;DHT22;16323;51.130;6.612;2023-02-01T15:10:58;15.20;61.90
29321;DHT22;16323;51.130;6.612;2023-02-01T15:13:28;15.20;61.90
29321;DHT22;16323;51.130;6.612;2023-02-01T15:16:02;15.20;61.80
29321;DHT22;16323;51.130;6.612;2023-02-01T15:18:29;15.20;61.80
29321;DHT22;16323;51.130;6.612;2023-02-01T15:20:59;15.10;61.50
29321;DHT22;16323;51.130;6.612;2023-02-01T15:23:26;15.10;61.10
29321;DHT22;16323;51.130;6.612;2023-02-01T15:25:53;15.10;61.00
29321;DHT22;16323;51.130;6.612;2023-02-01T15:28:20;15.10;61.50
29321;DHT22;16323;51.130;6.612;2023-02-01T15:30:57;15.10;61.20
29321;DHT22;16323;51.130;6.612;2023-02-01T15:33:24;15.10;61.40
29321;DHT22;16323;51.130;6.612;2023-02-01T15:35:52;15.20;61.40
29321;DHT22;16323;51.130;6.612;2023-02-01T15:38:37;15.20;61.70
29321;DHT22;16323;51.130;6.612;2023-02-01T15:41:09;15.20;62.00
29321;DHT22;16323;51.130;6.612;2023-02-01T15:43:40;15.10;62.10
29321;DHT22;16323;51.130;6.612;2023-02-01T15:46:10;15.10;62.10
29321;DHT22;16323;51.130;6.612;2023-02-01T15:48:42;15.10;62.50
29321;DHT22;16323;51.130;6.612;2023-02-01T15:51:18;15.10;62.50
29321;DHT22;16323;51.130;6.612;2023-02-01T15:53:51;15.10;62.40
29321;DHT22;16323;51.130;6.612;2023-02-01T15:56:23;15.10;62.30
29321;DHT22;16323;51.130;6.612;2023-02-01T15:58:54;15.10;62.40
29321;DHT22;16323;51.130;6.612;2023-02-01T16:01:21;15.10;62.20
29321;DHT22;16323;51.130;6.612;2023-02-01T16:03:49;15.10;62.30
29321;DHT22;16323;51.130;6.612;2023-02-01T16:06:29;15.10;62.20